Time;durP1;ratioP1;P1;durP2;ratioP2;P2;SDS_P1;SDS_P2;PMS_P1;PMS_P2;Temp;Humidity;BMP_temperature;BMP_pressure;BME280_temperature;BME280_humidity;BME280_pressure;Samples;Min_cycle;Max_cycle;Signal;HPM_P1;HPM_P2
2023/02/22 00:01:34;;;;;;;7.60;6.70;;;8.10;72.50;;;;;;5081415;28;20939;-86
2023/02/22 00:04:05;;;;;;;6.13;5.53;;;7.60;71.90;;;;;;5081806;28;20214;-86
2023/02/22 00:06:31;;;;;;;5.57;4.83;;;7.50;76.40;;;;;;5087870;28;20171;-85
2023/02/22 00:08:57;;;;;;;6.23;5.40;;;7.60;76.40;;;;;;5101973;28;20199;-84
2023/02/22 00:11:23;;;;;;;5.80;5.20;;;7.70;75.40;;;;;;5091680;28;20202;-85
2023/02/22 00:13:49;;;;;;;5.50;5.00;;;7.80;75.30;;;;;;5063166;28;20195;-86
2023/02/22 00:16:18;;;;;;;5.03;4.53;;;7.80;74.80;;;;;;5070616;28;20270;-85
2023/02/22 00:18:43;;;;;;;5.07;4.43;;;7.80;73.40;;;;;;5097977;28;20294;-86
2023/02/22 00:21:12;;;;;;;4.90;4.43;;;7.80;73.80;;;;;;5091148;28;20242;-85
2023/02/22 00:23:42;;;;;;;5.20;4.73;;;7.80;74.50;;;;;;5080635;28;20180;-85
2023/02/22 00:26:08;;;;;;;7.03;5.20;;;7.90;74.70;;;;;;5090458;28;20190;-85
2023/02/22 00:28:35;;;;;;;5.83;4.83;;;7.80;73.20;;;;;;5078972;28;20623;-86
2023/02/22 00:31:04;;;;;;;5.10;4.60;;;7.80;73.10;;;;;;5083466;28;20179;-84
2023/02/22 00:33:30;;;;;;;5.20;4.70;;;7.70;74.60;;;;;;5098035;28;20406;-84
2023/02/22 00:35:56;;;;;;;6.17;5.07;;;7.70;75.00;;;;;;5077397;28;20194;-84
2023/02/22 00:38:24;;;;;;;5.93;5.33;;;7.70;75.20;;;;;;5093072;28;20179;-85
2023/02/22 00:40:50;;;;;;;7.10;5.93;;;7.70;75.60;;;;;;5088366;28;20218;-85
2023/02/22 00:43:16;;;;;;;7.03;5.93;;;7.80;74.90;;;;;;5086234;28;20183;-85
2023/02/22 00:45:42;;;;;;;6.50;5.90;;;7.80;75.10;;;;;;5081043;28;21180;-88
2023/02/22 00:48:09;;;;;;;6.93;6.27;;;7.80;75.20;;;;;;5095344;28;20222;-87
2023/02/22 00:50:35;;;;;;;7.33;6.63;;;7.70;75.20;;;;;;5096710;28;20247;-87
2023/02/22 00:53:02;;;;;;;8.00;6.93;;;7.80;75.60;;;;;;5096455;28;20176;-86
2023/02/22 00:55:33;;;;;;;7.63;6.83;;;7.90;76.00;;;;;;5097347;28;20188;-86
2023/02/22 00:58:00;;;;;;;7.23;6.63;;;7.90;75.50;;;;;;5107162;28;20194;-86
2023/02/22 01:00:31;;;;;;;8.50;6.70;;;7.90;75.50;;;;;;5106209;28;20214;-84
2023/02/22 01:02:56;;;;;;;8.53;6.60;;;7.90;74.20;;;;;;5106283;28;20163;-84
2023/02/22 01:05:25;;;;;;;6.93;6.17;;;7.80;74.70;;;;;;5091356;28;20201;-86
2023/02/22 01:07:52;;;;;;;6.00;5.40;;;7.70;75.20;;;;;;5093981;28;20175;-84
2023/02/22 01:10:20;;;;;;;7.13;6.23;;;7.70;74.90;;;;;;5092679;28;20195;-87
2023/02/22 01:12:47;;;;;;;6.97;6.27;;;7.70;75.30;;;;;;5066670;28;20187;-86
2023/02/22 01:15:14;;;;;;;7.97;6.67;;;7.60;73.60;;;;;;5084270;28;20179;-83
2023/02/22 01:17:42;;;;;;;6.47;5.87;;;7.60;75.10;;;;;;5102228;28;20501;-88
2023/02/22 01:20:11;;;;;;;5.30;4.80;;;7.60;74.40;;;;;;5103814;28;20260;-85
2023/02/22 01:22:39;;;;;;;6.93;5.97;;;7.70;74.70;;;;;;5075338;28;20247;-86
2023/02/22 01:25:06;;;;;;;7.43;5.87;;;7.60;74.90;;;;;;5084879;28;20231;-85
2023/02/22 01:27:33;;;;;;;8.30;5.50;;;7.70;75.00;;;;;;5085929;28;20434;-86
2023/02/22 01:29:59;;;;;;;5.87;5.37;;;7.70;74.60;;;;;;5087778;28;20306;-86
2023/02/22 01:32:24;;;;;;;6.67;5.83;;;7.60;73.00;;;;;;5086627;28;20186;-84
2023/02/22 01:34:52;;;;;;;7.47;5.30;;;7.60;74.60;;;;;;5084343;28;20190;-86
2023/02/22 01:37:18;;;;;;;7.17;5.70;;;7.50;74.50;;;;;;5093860;28;20357;-83
2023/02/22 01:39:44;;;;;;;5.83;5.23;;;7.50;74.90;;;;;;5101977;28;20198;-85
2023/02/22 01:42:10;;;;;;;5.93;5.37;;;7.50;74.30;;;;;;5087448;28;20282;-87
2023/02/22 01:44:38;;;;;;;7.17;5.93;;;7.30;74.10;;;;;;5084103;28;20210;-84
2023/02/22 01:47:05;;;;;;;6.23;5.63;;;7.10;73.80;;;;;;5086642;28;20300;-86
2023/02/22 01:49:36;;;;;;;5.97;5.37;;;7.10;75.90;;;;;;5100262;28;20207;-86
2023/02/22 01:52:07;;;;;;;8.10;6.47;;;7.10;76.10;;;;;;5107019;28;20774;-85
2023/02/22 01:54:56;;;;;;;6.43;5.83;;;7.20;75.60;;;;;;5088002;28;20224;-85
2023/02/22 01:57:28;;;;;;;6.53;5.93;;;7.30;75.90;;;;;;5106056;28;20621;-86
2023/02/22 02:00:00;;;;;;;6.70;6.10;;;7.30;75.50;;;;;;5106307;28;20235;-86
2023/02/22 02:02:26;;;;;;;6.87;6.27;;;7.30;75.50;;;;;;5105551;28;20179;-86
2023/02/22 02:04:53;;;;;;;6.90;6.30;;;7.30;75.10;;;;;;5091638;28;20198;-85
2023/02/22 02:07:21;;;;;;;8.40;6.50;;;7.20;75.50;;;;;;5092727;28;20193;-85
2023/02/22 02:09:51;;;;;;;7.80;6.47;;;7.30;74.30;;;;;;5100962;28;20199;-86
2023/02/22 02:12:19;;;;;;;7.13;6.30;;;7.30;74.40;;;;;;5086842;28;20517;-86
2023/02/22 02:14:45;;;;;;;6.50;5.83;;;7.10;74.50;;;;;;5086381;28;20186;-86
2023/02/22 02:17:14;;;;;;;7.13;6.00;;;7.10;76.00;;;;;;5098553;28;20668;-85
2023/02/22 02:20:06;;;;;;;6.70;6.00;;;6.90;74.70;;;;;;5068947;28;20207;-83
2023/02/22 02:22:41;;;;;;;7.00;6.30;;;6.90;76.30;;;;;;5085682;28;20183;-85
2023/02/22 02:25:29;;;;;;;8.70;6.53;;;6.90;76.80;;;;;;5088014;28;20722;-84
2023/02/22 02:28:32;;;;;;;7.77;6.63;;;6.90;77.20;;;;;;5087478;28;20668;-86
2023/02/22 02:31:19;;;;;;;7.77;6.67;;;7.00;77.30;;;;;;5078748;28;20637;-85
2023/02/22 02:34:09;;;;;;;7.73;6.33;;;7.10;77.50;;;;;;5102865;28;20251;-83
2023/02/22 02:36:49;;;;;;;6.57;5.90;;;7.10;76.40;;;;;;5073712;28;20255;-85
2023/02/22 02:39:38;;;;;;;7.50;6.37;;;7.10;76.30;;;;;;5098387;28;20207;-85
2023/02/22 02:42:09;;;;;;;7.07;5.70;;;7.00;76.10;;;;;;5068300;28;20176;-85
2023/02/22 02:44:47;;;;;;;6.90;6.20;;;7.00;76.60;;;;;;5068134;28;20176;-85
2023/02/22 02:47:30;;;;;;;6.30;5.80;;;7.00;76.00;;;;;;5088586;28;20245;-85
2023/02/22 02:49:56;;;;;;;7.73;6.27;;;7.00;75.80;;;;;;5098250;28;20203;-85
2023/02/22 02:52:24;;;;;;;6.77;6.17;;;7.00;76.30;;;;;;5098291;28;20702;-85
2023/02/22 02:54:52;;;;;;;8.80;6.30;;;6.90;76.00;;;;;;5091935;28;20183;-86
2023/02/22 02:57:17;;;;;;;5.83;5.23;;;7.00;76.30;;;;;;5089242;28;20175;-85
2023/02/22 02:59:43;;;;;;;7.03;6.20;;;7.00;75.90;;;;;;5090120;28;20282;-85
2023/02/22 03:02:32;;;;;;;6.70;6.03;;;7.00;75.90;;;;;;5108716;28;20179;-86
2023/02/22 03:05:26;;;;;;;6.30;5.70;;;7.00;75.40;;;;;;5093736;28;20180;-86
2023/02/22 03:08:26;;;;;;;7.40;6.30;;;6.80;75.50;;;;;;5098587;28;20185;-84
2023/02/22 03:11:00;;;;;;;7.17;6.47;;;6.70;75.70;;;;;;5099720;28;20201;-86
2023/02/22 03:13:44;;;;;;;5.83;5.23;;;6.70;75.10;;;;;;5098948;28;20175;-85
2023/02/22 03:16:39;;;;;;;8.13;6.17;;;6.60;76.50;;;;;;5068886;28;20217;-86
2023/02/22 03:19:22;;;;;;;6.93;6.27;;;6.60;76.50;;;;;;5066469;28;20238;-85
2023/02/22 03:22:07;;;;;;;8.23;6.73;;;6.70;77.50;;;;;;5094933;28;20176;-87
2023/02/22 03:24:41;;;;;;;6.97;6.27;;;6.80;77.20;;;;;;5086668;28;20148;-86
2023/02/22 03:27:20;;;;;;;9.83;6.27;;;6.80;77.10;;;;;;5089830;28;20179;-85
2023/02/22 03:29:50;;;;;;;7.20;6.30;;;6.80;76.60;;;;;;5096127;28;20206;-84
2023/02/22 03:32:21;;;;;;;7.27;6.50;;;6.80;76.50;;;;;;5104879;28;20174;-86
2023/02/22 03:35:13;;;;;;;6.73;6.10;;;6.70;75.70;;;;;;5106410;28;20178;-85
2023/02/22 03:37:44;;;;;;;6.23;5.73;;;6.80;77.80;;;;;;5095060;28;20210;-86
2023/02/22 03:40:16;;;;;;;7.50;6.70;;;6.70;77.20;;;;;;5103843;28;20234;-84
2023/02/22 03:42:47;;;;;;;7.83;6.33;;;6.60;77.70;;;;;;5106720;28;20170;-85
2023/02/22 03:45:16;;;;;;;7.50;6.10;;;6.70;77.60;;;;;;5086693;28;20171;-86
2023/02/22 03:47:46;;;;;;;7.43;5.97;;;6.70;77.20;;;;;;5085597;28;20175;-86
2023/02/22 03:50:18;;;;;;;6.93;5.97;;;6.60;77.00;;;;;;5085030;28;20289;-87
2023/02/22 03:52:46;;;;;;;6.70;6.10;;;6.60;76.50;;;;;;5086822;28;20180;-85
2023/02/22 03:55:16;;;;;;;6.90;6.20;;;6.50;76.80;;;;;;5103136;28;20201;-86
2023/02/22 03:57:47;;;;;;;7.53;6.83;;;6.50;77.10;;;;;;5105080;28;20228;-86
2023/02/22 04:00:17;;;;;;;7.30;6.60;;;6.50;77.50;;;;;;5088000;28;20229;-87
2023/02/22 04:02:43;;;;;;;6.40;5.90;;;6.50;77.60;;;;;;5094208;28;20175;-84
2023/02/22 04:05:09;;;;;;;7.13;6.23;;;6.50;77.20;;;;;;5102595;28;20186;-86
2023/02/22 04:07:35;;;;;;;7.07;6.47;;;6.50;77.50;;;;;;5101533;28;20233;-86
2023/02/22 04:10:02;;;;;;;7.43;6.67;;;6.40;77.20;;;;;;5104242;28;20194;-87
2023/02/22 04:12:28;;;;;;;8.73;6.80;;;6.50;77.30;;;;;;5099227;28;20182;-85
2023/02/22 04:14:53;;;;;;;7.40;6.63;;;6.50;77.90;;;;;;5102877;28;20251;-85
2023/02/22 04:17:19;;;;;;;8.50;7.53;;;6.50;78.00;;;;;;5105160;28;20258;-86
2023/02/22 04:19:45;;;;;;;9.63;7.97;;;6.60;78.70;;;;;;5107269;28;20214;-86
2023/02/22 04:22:11;;;;;;;8.27;7.47;;;6.60;77.90;;;;;;5090923;28;20176;-86
2023/02/22 04:24:36;;;;;;;8.23;7.43;;;6.60;77.30;;;;;;5078899;28;20184;-84
2023/02/22 04:27:02;;;;;;;8.30;7.50;;;6.60;77.60;;;;;;5095440;28;20186;-86
2023/02/22 04:29:28;;;;;;;9.37;8.07;;;6.60;77.60;;;;;;5105884;28;20255;-85
2023/02/22 04:31:54;;;;;;;7.80;7.10;;;6.70;77.20;;;;;;5107753;28;20190;-86
2023/02/22 04:34:20;;;;;;;8.13;7.33;;;6.60;77.30;;;;;;5095305;28;20176;-85
2023/02/22 04:36:46;;;;;;;7.77;7.03;;;6.60;76.40;;;;;;5071236;28;20590;-85
2023/02/22 04:39:11;;;;;;;8.10;7.30;;;6.60;77.40;;;;;;5106340;28;20199;-86
2023/02/22 04:41:37;;;;;;;8.00;7.17;;;6.50;77.00;;;;;;5104982;28;20195;-86
2023/02/22 04:44:03;;;;;;;8.27;7.43;;;6.50;77.00;;;;;;5098799;28;20182;-87
2023/02/22 04:46:30;;;;;;;8.37;7.40;;;6.40;77.00;;;;;;5067376;28;20195;-85
2023/02/22 04:48:56;;;;;;;10.23;7.07;;;6.40;77.60;;;;;;5105527;28;20490;-86
2023/02/22 04:51:23;;;;;;;7.73;7.03;;;6.30;78.60;;;;;;5104910;28;20186;-86
2023/02/22 04:53:48;;;;;;;8.43;7.63;;;6.30;78.90;;;;;;5099981;28;20195;-86
2023/02/22 04:56:17;;;;;;;8.00;7.23;;;6.40;78.30;;;;;;5086762;28;20187;-87
2023/02/22 04:58:42;;;;;;;8.43;7.53;;;6.40;77.70;;;;;;5101510;28;20213;-86
2023/02/22 05:01:08;;;;;;;8.27;7.30;;;6.40;77.60;;;;;;5103264;28;20215;-87
2023/02/22 05:03:36;;;;;;;7.53;6.77;;;6.20;76.80;;;;;;5096960;28;20182;-86
2023/02/22 05:06:02;;;;;;;11.80;7.93;;;6.20;77.50;;;;;;5067006;28;20199;-85
2023/02/22 05:08:28;;;;;;;9.90;7.40;;;6.10;77.90;;;;;;5096777;28;20743;-86
2023/02/22 05:10:54;;;;;;;11.63;7.70;;;6.10;78.60;;;;;;5105754;28;20189;-88
2023/02/22 05:13:20;;;;;;;8.93;6.87;;;6.00;77.70;;;;;;5091794;28;20201;-86
2023/02/22 05:15:46;;;;;;;8.70;7.13;;;6.00;78.40;;;;;;5086358;28;20182;-85
2023/02/22 05:18:12;;;;;;;9.07;7.13;;;6.00;78.50;;;;;;5097574;28;20722;-86
2023/02/22 05:20:38;;;;;;;8.93;8.03;;;6.20;78.70;;;;;;5094908;28;20199;-87
2023/02/22 05:23:04;;;;;;;8.17;7.47;;;6.20;79.40;;;;;;5081997;28;20205;-87
2023/02/22 05:25:32;;;;;;;8.23;7.13;;;6.30;78.90;;;;;;5105536;28;20202;-86
2023/02/22 05:28:02;;;;;;;7.93;7.13;;;6.30;78.20;;;;;;5091462;28;20243;-86
2023/02/22 05:30:30;;;;;;;9.80;8.07;;;6.20;78.30;;;;;;5087779;28;20204;-85
2023/02/22 05:32:58;;;;;;;8.07;6.87;;;6.10;78.60;;;;;;5091066;28;20175;-86
2023/02/22 05:35:23;;;;;;;10.20;7.27;;;6.20;78.80;;;;;;5089971;28;20176;-85
2023/02/22 05:37:49;;;;;;;7.53;6.83;;;6.10;78.80;;;;;;5091757;28;20186;-86
2023/02/22 05:40:18;;;;;;;8.07;7.27;;;6.10;78.00;;;;;;5090293;28;20229;-87
2023/02/22 05:42:44;;;;;;;8.70;7.80;;;6.00;77.90;;;;;;5095994;28;20178;-86
2023/02/22 05:45:13;;;;;;;7.83;6.73;;;6.00;78.70;;;;;;5099487;28;20187;-88
2023/02/22 05:47:38;;;;;;;7.83;7.10;;;5.90;79.20;;;;;;5086627;28;20257;-86
2023/02/22 05:50:05;;;;;;;8.87;7.97;;;5.90;78.50;;;;;;5087666;28;20235;-82
2023/02/22 05:52:30;;;;;;;9.00;8.10;;;6.00;79.70;;;;;;5088278;28;20240;-85
2023/02/22 05:54:56;;;;;;;12.60;8.60;;;6.10;80.20;;;;;;5088022;28;20180;-84
2023/02/22 05:57:22;;;;;;;9.40;8.50;;;6.00;79.30;;;;;;5088184;28;20213;-84
2023/02/22 05:59:48;;;;;;;9.23;8.33;;;6.00;80.70;;;;;;5087423;28;20207;-87
2023/02/22 06:02:14;;;;;;;8.90;7.50;;;6.00;80.40;;;;;;5087903;28;20242;-86
2023/02/22 06:04:42;;;;;;;8.97;8.07;;;6.00;79.20;;;;;;5087129;28;20179;-85
2023/02/22 06:07:08;;;;;;;8.77;7.97;;;6.00;79.50;;;;;;5084240;28;20183;-85
2023/02/22 06:09:34;;;;;;;10.83;8.67;;;6.00;79.10;;;;;;5069520;28;20321;-86
2023/02/22 06:11:59;;;;;;;9.13;8.23;;;5.90;79.50;;;;;;5087339;28;20171;-85
2023/02/22 06:14:25;;;;;;;10.10;9.10;;;5.90;80.80;;;;;;5086726;28;20283;-85
2023/02/22 06:16:52;;;;;;;8.90;8.00;;;6.00;81.30;;;;;;5087490;28;20183;-84
2023/02/22 06:19:18;;;;;;;7.93;7.17;;;6.00;79.30;;;;;;5094597;28;20231;-84
2023/02/22 06:21:50;;;;;;;8.87;8.07;;;5.90;79.50;;;;;;5097085;28;20228;-85
2023/02/22 06:24:16;;;;;;;8.60;7.53;;;5.90;80.10;;;;;;5089431;28;20165;-84
2023/02/22 06:26:42;;;;;;;7.90;7.13;;;5.90;80.90;;;;;;5094852;28;20271;-85
2023/02/22 06:29:08;;;;;;;9.17;7.37;;;5.90;81.70;;;;;;5076022;28;20198;-84
2023/02/22 06:31:34;;;;;;;10.37;7.40;;;5.90;81.00;;;;;;5090633;28;20190;-85
2023/02/22 06:33:59;;;;;;;10.53;7.90;;;5.80;80.20;;;;;;5092642;28;20294;-85
2023/02/22 06:36:25;;;;;;;11.37;8.10;;;5.80;79.60;;;;;;5092537;28;20191;-84
2023/02/22 06:38:51;;;;;;;8.00;7.20;;;5.80;80.50;;;;;;5089188;28;20214;-86
2023/02/22 06:41:16;;;;;;;9.80;8.00;;;5.80;80.40;;;;;;5090831;28;20296;-85
2023/02/22 06:43:42;;;;;;;12.30;8.03;;;5.90;80.60;;;;;;5091886;28;20208;-85
2023/02/22 06:46:11;;;;;;;9.80;7.60;;;5.90;80.00;;;;;;5073033;28;20207;-85
2023/02/22 06:48:38;;;;;;;7.73;7.03;;;5.90;79.70;;;;;;5093796;28;20190;-86
2023/02/22 06:51:07;;;;;;;10.07;7.17;;;5.90;80.20;;;;;;5088553;28;20215;-85
2023/02/22 06:53:33;;;;;;;9.00;8.10;;;5.80;79.60;;;;;;5090428;28;20195;-84
2023/02/22 06:55:59;;;;;;;9.27;7.90;;;5.90;79.90;;;;;;5089848;28;20191;-87
2023/02/22 06:58:25;;;;;;;10.43;8.87;;;5.90;79.70;;;;;;5091519;28;20188;-85
2023/02/22 07:00:51;;;;;;;10.23;7.60;;;5.80;79.40;;;;;;5087121;28;20195;-85
2023/02/22 07:03:17;;;;;;;10.30;7.30;;;5.80;80.50;;;;;;5089396;28;20189;-85
2023/02/22 07:05:43;;;;;;;12.23;8.90;;;5.90;80.80;;;;;;5089621;28;20287;-85
2023/02/22 07:08:10;;;;;;;9.27;8.37;;;6.00;80.80;;;;;;5094709;28;20179;-85
2023/02/22 07:10:38;;;;;;;9.90;8.27;;;6.00;81.20;;;;;;5089485;28;20217;-84
2023/02/22 07:13:05;;;;;;;10.63;8.50;;;6.10;81.90;;;;;;5090689;28;20254;-87
2023/02/22 07:15:33;;;;;;;8.93;7.73;;;6.10;82.70;;;;;;5072337;28;20222;-85
2023/02/22 07:17:59;;;;;;;9.17;8.20;;;6.10;82.20;;;;;;5088258;28;20187;-86
2023/02/22 07:20:27;;;;;;;13.17;9.57;;;6.00;83.50;;;;;;5091936;28;20203;-84
2023/02/22 07:22:53;;;;;;;13.20;9.50;;;5.80;85.70;;;;;;5094345;28;20171;-83
2023/02/22 07:25:19;;;;;;;11.23;9.70;;;5.60;89.40;;;;;;5093188;28;20379;-85
2023/02/22 07:27:46;;;;;;;13.23;11.10;;;5.40;93.30;;;;;;5092226;28;20172;-85
2023/02/22 07:30:24;;;;;;;13.03;11.67;;;5.30;96.50;;;;;;5087058;28;20225;-86
2023/02/22 07:32:52;;;;;;;13.27;11.93;;;5.20;97.80;;;;;;5089166;28;20178;-84
2023/02/22 07:35:26;;;;;;;12.67;11.40;;;5.10;99.00;;;;;;5086795;28;20243;-86
2023/02/22 07:37:53;;;;;;;14.43;11.80;;;5.00;99.90;;;;;;5091350;28;20189;-85
2023/02/22 07:40:19;;;;;;;14.00;11.03;;;5.20;99.90;;;;;;5093876;28;20214;-85
2023/02/22 07:43:15;;;;;;;12.60;11.33;;;5.30;99.50;;;;;;5090274;28;20179;-85
2023/02/22 07:45:41;;;;;;;13.93;11.13;;;5.30;99.40;;;;;;5092798;28;20297;-86
2023/02/22 07:48:06;;;;;;;11.67;10.50;;;5.40;98.10;;;;;;5091861;28;20417;-85
2023/02/22 07:50:33;;;;;;;12.83;10.33;;;5.50;98.30;;;;;;5088889;28;20203;-85
2023/02/22 07:53:02;;;;;;;10.17;9.23;;;5.70;98.00;;;;;;5090691;28;20179;-83
2023/02/22 07:55:29;;;;;;;11.50;10.30;;;5.90;96.30;;;;;;5087725;28;20194;-85
2023/02/22 07:57:57;;;;;;;11.17;9.97;;;6.10;94.90;;;;;;5087285;28;20224;-84
2023/02/22 08:00:25;;;;;;;10.63;9.53;;;6.30;93.40;;;;;;5073345;28;20226;-85
2023/02/22 08:02:51;;;;;;;10.63;9.53;;;6.50;92.30;;;;;;5087842;28;20620;-86
2023/02/22 08:05:17;;;;;;;11.27;9.87;;;6.60;91.30;;;;;;5089808;28;20187;-85
2023/02/22 08:07:43;;;;;;;13.00;10.43;;;6.70;90.10;;;;;;5086956;28;20176;-85
2023/02/22 08:10:10;;;;;;;13.53;9.87;;;6.80;88.70;;;;;;5084861;28;20301;-85
2023/02/22 08:12:37;;;;;;;12.77;9.60;;;6.80;88.80;;;;;;5092351;28;20583;-86
2023/02/22 08:15:04;;;;;;;11.40;9.77;;;6.80;88.80;;;;;;5090714;28;20194;-81
2023/02/22 08:17:30;;;;;;;15.83;11.33;;;6.80;89.10;;;;;;5090835;28;20187;-85
2023/02/22 08:19:56;;;;;;;10.67;9.57;;;6.80;89.60;;;;;;5069233;28;20286;-85
2023/02/22 08:22:22;;;;;;;11.60;10.40;;;6.70;90.40;;;;;;5089661;28;20209;-87
2023/02/22 08:24:48;;;;;;;12.93;11.57;;;6.70;91.20;;;;;;5086948;28;20176;-85
2023/02/22 08:27:14;;;;;;;14.00;11.10;;;6.80;90.70;;;;;;5088938;28;20183;-85
2023/02/22 08:29:39;;;;;;;12.30;11.00;;;6.80;90.90;;;;;;5066914;28;20210;-86
2023/02/22 08:32:06;;;;;;;14.20;10.87;;;6.80;90.80;;;;;;5089635;28;20251;-85
2023/02/22 08:34:32;;;;;;;11.77;10.67;;;6.90;91.30;;;;;;5090756;28;20188;-82
2023/02/22 08:36:57;;;;;;;14.27;11.40;;;6.90;92.00;;;;;;5086326;28;20237;-85
2023/02/22 08:39:23;;;;;;;11.40;10.20;;;6.90;92.30;;;;;;5072206;28;20199;-85
2023/02/22 08:41:49;;;;;;;13.47;10.93;;;7.00;92.10;;;;;;5091795;28;20296;-85
2023/02/22 08:44:14;;;;;;;11.40;10.40;;;7.10;91.50;;;;;;5087777;28;20190;-85
2023/02/22 08:46:40;;;;;;;11.57;10.53;;;7.20;90.90;;;;;;5088682;28;20194;-87
2023/02/22 08:49:07;;;;;;;12.43;11.13;;;7.40;90.10;;;;;;5090332;28;20207;-85
2023/02/22 08:51:35;;;;;;;12.37;11.17;;;7.40;88.30;;;;;;5083522;28;20194;-86
2023/02/22 08:54:02;;;;;;;13.00;11.80;;;7.50;89.30;;;;;;5090121;28;20203;-87
2023/02/22 08:56:28;;;;;;;12.33;11.10;;;7.50;90.20;;;;;;5088318;28;20240;-87
2023/02/22 08:58:56;;;;;;;13.50;12.00;;;7.60;89.30;;;;;;5089651;28;20203;-88
2023/02/22 09:01:23;;;;;;;12.13;10.83;;;7.50;89.90;;;;;;5090068;28;20208;-85
2023/02/22 09:03:49;;;;;;;14.20;10.77;;;7.70;88.60;;;;;;5088250;28;20208;-86
2023/02/22 09:06:16;;;;;;;13.17;11.53;;;7.80;89.10;;;;;;5073466;28;20255;-86
2023/02/22 09:08:41;;;;;;;13.27;12.07;;;7.80;87.50;;;;;;5088957;28;20183;-86
2023/02/22 09:11:07;;;;;;;14.77;12.00;;;7.90;87.70;;;;;;5068403;28;20194;-85
2023/02/22 09:13:32;;;;;;;12.77;11.40;;;7.80;87.40;;;;;;5087028;28;20194;-86
2023/02/22 09:15:58;;;;;;;14.30;11.73;;;7.60;90.60;;;;;;5085341;28;20192;-85
2023/02/22 09:18:26;;;;;;;12.97;11.67;;;7.70;90.20;;;;;;5087481;28;20715;-86
2023/02/22 09:20:53;;;;;;;13.30;12.00;;;7.70;92.30;;;;;;5087680;28;20271;-84
2023/02/22 09:23:20;;;;;;;13.27;11.83;;;7.90;91.10;;;;;;5086799;28;20233;-84
2023/02/22 09:25:46;;;;;;;14.37;12.57;;;7.90;92.30;;;;;;5083322;28;20660;-86
2023/02/22 09:28:12;;;;;;;12.77;11.47;;;8.10;90.30;;;;;;5084462;28;20187;-86
2023/02/22 09:30:39;;;;;;;12.00;10.87;;;8.40;87.70;;;;;;5084973;28;20194;-85
2023/02/22 09:33:16;;;;;;;13.27;11.57;;;8.50;87.10;;;;;;5085054;28;20552;-84
2023/02/22 09:35:46;;;;;;;12.37;11.07;;;8.60;85.30;;;;;;5092169;28;20188;-88
2023/02/22 09:38:17;;;;;;;13.53;11.67;;;8.70;85.50;;;;;;5091288;28;20163;-86
2023/02/22 09:40:49;;;;;;;12.57;11.27;;;8.60;87.30;;;;;;5088317;28;20191;-85
2023/02/22 09:43:26;;;;;;;11.83;10.73;;;8.50;84.00;;;;;;5085837;28;20176;-86
2023/02/22 09:46:17;;;;;;;11.80;10.63;;;8.50;86.20;;;;;;5094174;28;20194;-86
2023/02/22 09:49:04;;;;;;;12.50;10.77;;;8.80;82.70;;;;;;5102372;28;20181;-89
2023/02/22 09:51:48;;;;;;;10.57;9.67;;;9.20;79.30;;;;;;5105776;28;20205;-84
2023/02/22 09:54:39;;;;;;;11.13;10.03;;;9.40;74.90;;;;;;5091504;28;20176;-86
2023/02/22 09:57:09;;;;;;;11.87;10.33;;;9.70;74.00;;;;;;5095303;28;20167;-87
2023/02/22 09:59:41;;;;;;;12.53;11.33;;;9.90;73.90;;;;;;5090948;28;20203;-83
2023/02/22 10:02:31;;;;;;;12.03;10.83;;;10.00;69.60;;;;;;5089407;28;20167;-85
2023/02/22 10:05:11;;;;;;;11.23;10.13;;;10.00;70.30;;;;;;5085769;28;20264;-87
2023/02/22 10:07:45;;;;;;;11.87;10.67;;;10.10;70.60;;;;;;5095563;28;20183;-86
2023/02/22 10:10:17;;;;;;;11.63;10.47;;;10.30;69.70;;;;;;5071240;28;20206;-86
2023/02/22 10:13:08;;;;;;;12.43;11.23;;;10.50;69.20;;;;;;5073090;28;20183;-86
2023/02/22 10:15:34;;;;;;;12.77;11.47;;;10.40;70.10;;;;;;5067536;28;20222;-84
2023/02/22 10:18:23;;;;;;;11.90;10.53;;;10.60;69.80;;;;;;5089962;28;20206;-86
2023/02/22 10:21:03;;;;;;;14.03;12.30;;;10.80;69.00;;;;;;5052493;28;20247;-84
2023/02/22 10:23:42;;;;;;;12.40;11.20;;;10.70;69.50;;;;;;5091721;28;20214;-84
2023/02/22 10:26:16;;;;;;;13.77;11.43;;;10.70;69.50;;;;;;5089277;28;20167;-86
2023/02/22 10:29:06;;;;;;;13.10;11.67;;;10.90;69.20;;;;;;5090133;28;20188;-87
2023/02/22 10:31:38;;;;;;;12.47;11.27;;;10.60;70.50;;;;;;5093532;28;20180;-86
2023/02/22 10:34:25;;;;;;;13.37;11.97;;;10.80;69.30;;;;;;5093034;28;21458;-87
2023/02/22 10:36:59;;;;;;;13.77;12.37;;;11.20;67.70;;;;;;5090726;28;20190;-86
2023/02/22 10:39:33;;;;;;;14.30;12.33;;;11.30;68.10;;;;;;5073000;28;20210;-86
2023/02/22 10:42:08;;;;;;;13.63;12.20;;;11.50;67.80;;;;;;5087739;28;20203;-87
2023/02/22 10:44:38;;;;;;;13.17;11.97;;;11.70;65.10;;;;;;5088185;28;20192;-86
2023/02/22 10:47:07;;;;;;;12.03;11.03;;;11.70;64.90;;;;;;5072066;28;20236;-86
2023/02/22 10:49:38;;;;;;;12.63;11.33;;;11.50;65.00;;;;;;5071314;28;20212;-86
2023/02/22 10:52:13;;;;;;;14.83;11.80;;;11.70;63.10;;;;;;5077013;28;20186;-83
2023/02/22 10:54:43;;;;;;;13.03;11.83;;;11.80;62.60;;;;;;5090952;28;20215;-83
2023/02/22 10:57:12;;;;;;;14.27;12.53;;;11.60;63.50;;;;;;5093988;28;20189;-85
2023/02/22 10:59:39;;;;;;;14.57;12.40;;;11.70;64.80;;;;;;5093359;28;20274;-84
2023/02/22 11:02:14;;;;;;;13.87;12.50;;;11.80;63.70;;;;;;5098273;28;20169;-85
2023/02/22 11:04:50;;;;;;;12.40;11.07;;;12.00;62.40;;;;;;5106184;28;20189;-88
2023/02/22 11:07:29;;;;;;;12.93;11.53;;;11.80;61.50;;;;;;5072333;28;20235;-84
2023/02/22 11:09:59;;;;;;;14.07;12.13;;;12.10;59.90;;;;;;5057199;28;20201;-87
2023/02/22 11:12:27;;;;;;;11.50;10.40;;;12.20;60.40;;;;;;5075548;28;20216;-85
2023/02/22 11:14:53;;;;;;;12.70;11.40;;;12.10;59.70;;;;;;5077832;28;20189;-85
2023/02/22 11:17:39;;;;;;;11.50;10.40;;;12.50;57.60;;;;;;5055261;28;20260;-87
2023/02/22 11:20:06;;;;;;;12.03;10.50;;;12.60;58.10;;;;;;5089337;28;20460;-87
2023/02/22 11:22:40;;;;;;;12.53;10.87;;;12.70;56.40;;;;;;5067806;28;20261;-88
2023/02/22 11:25:07;;;;;;;11.97;10.80;;;12.90;56.70;;;;;;5062045;28;20268;-84
2023/02/22 11:27:42;;;;;;;12.93;11.47;;;13.10;56.20;;;;;;5086788;28;20194;-86
2023/02/22 11:30:29;;;;;;;11.83;10.67;;;13.30;54.90;;;;;;5074541;28;20288;-86
2023/02/22 11:33:16;;;;;;;12.17;10.90;;;13.40;55.60;;;;;;5091125;28;20186;-85
2023/02/22 11:36:01;;;;;;;12.33;11.13;;;13.80;54.10;;;;;;5087897;28;20179;-85
2023/02/22 11:38:32;;;;;;;12.33;10.67;;;13.30;56.20;;;;;;5091273;28;20606;-86
2023/02/22 11:41:23;;;;;;;13.07;11.87;;;13.30;56.50;;;;;;5087133;28;20195;-86
2023/02/22 11:43:51;;;;;;;12.97;11.77;;;13.70;55.30;;;;;;5056879;28;20207;-87
2023/02/22 11:46:18;;;;;;;15.30;12.40;;;13.90;52.90;;;;;;5087070;28;20209;-85
2023/02/22 11:48:59;;;;;;;13.50;12.23;;;13.60;54.60;;;;;;5100061;28;20208;-85
2023/02/22 11:52:10;;;;;;;14.00;12.70;;;13.30;57.20;;;;;;5082465;28;20251;-84
2023/02/22 11:55:00;;;;;;;12.83;11.63;;;13.50;57.50;;;;;;5013002;28;20272;-84
2023/02/22 11:57:58;;;;;;;13.73;12.33;;;14.30;55.20;;;;;;5027579;28;20237;-86
2023/02/22 12:00:42;;;;;;;13.83;12.53;;;14.70;51.60;;;;;;5073070;28;20217;-85
2023/02/22 12:04:01;;;;;;;13.63;12.23;;;15.00;50.90;;;;;;5085542;28;20175;-85
2023/02/22 12:06:48;;;;;;;13.60;12.10;;;15.20;50.30;;;;;;5069902;28;20203;-85
2023/02/22 12:09:22;;;;;;;13.53;12.33;;;15.20;50.80;;;;;;5089481;28;20187;-85
2023/02/22 12:11:56;;;;;;;13.83;12.03;;;15.40;50.80;;;;;;5087889;28;20192;-84
2023/02/22 12:14:53;;;;;;;13.77;12.43;;;15.10;51.30;;;;;;5089111;28;20242;-86
2023/02/22 12:17:29;;;;;;;14.13;12.50;;;15.60;49.80;;;;;;5066960;28;20197;-86
2023/02/22 12:20:05;;;;;;;13.13;11.90;;;15.20;51.90;;;;;;5086027;28;20210;-83
2023/02/22 12:22:34;;;;;;;23.23;13.00;;;15.50;50.20;;;;;;5084526;28;20176;-84
2023/02/22 12:25:24;;;;;;;15.20;13.30;;;16.10;49.60;;;;;;5084104;28;20176;-85
2023/02/22 12:27:54;;;;;;;16.57;13.07;;;15.60;50.60;;;;;;5090295;28;20192;-84
2023/02/22 12:30:30;;;;;;;15.03;13.50;;;15.30;52.30;;;;;;5089082;28;20207;-85
2023/02/22 12:33:03;;;;;;;14.47;12.97;;;15.80;50.20;;;;;;5092277;28;20697;-87
2023/02/22 12:35:34;;;;;;;15.40;13.63;;;16.20;48.80;;;;;;5091694;28;20187;-85
2023/02/22 12:38:11;;;;;;;15.73;14.13;;;15.60;49.10;;;;;;5091918;28;20269;-86
2023/02/22 12:40:55;;;;;;;15.40;13.83;;;15.50;51.30;;;;;;5088457;28;20208;-87
2023/02/22 12:43:33;;;;;;;17.60;13.90;;;15.50;51.50;;;;;;5069753;28;20272;-84
2023/02/22 12:46:02;;;;;;;14.80;13.50;;;16.20;49.40;;;;;;5087210;28;20175;-86
2023/02/22 12:48:46;;;;;;;15.77;13.50;;;16.60;47.50;;;;;;5085416;28;20177;-86
2023/02/22 12:51:14;;;;;;;14.83;13.43;;;16.90;47.00;;;;;;5088976;28;20215;-86
2023/02/22 12:53:45;;;;;;;15.30;13.87;;;17.10;45.20;;;;;;5087350;28;20186;-85
2023/02/22 12:56:26;;;;;;;16.10;14.30;;;16.80;45.80;;;;;;5084560;28;20178;-84
2023/02/22 12:59:07;;;;;;;16.27;14.60;;;15.90;49.10;;;;;;5088895;28;20325;-86
2023/02/22 13:01:44;;;;;;;15.87;14.23;;;15.30;51.20;;;;;;5091073;28;20274;-84
2023/02/22 13:04:10;;;;;;;16.30;13.47;;;14.80;55.40;;;;;;5087956;28;20178;-85
2023/02/22 13:06:48;;;;;;;15.67;13.70;;;14.80;54.20;;;;;;5089692;28;20211;-87